createdAt,value
2018-04-10T00:01:47.794Z,99.90
2018-04-10T00:04:15.250Z,99.90
2018-04-10T00:06:42.675Z,99.90
2018-04-10T00:09:10.096Z,99.90
2018-04-10T00:11:38.463Z,99.90
2018-04-10T00:14:05.896Z,99.90
2018-04-10T00:16:33.404Z,99.90
2018-04-10T00:19:00.827Z,99.90
2018-04-10T00:21:29.060Z,99.90
2018-04-10T00:23:56.506Z,99.90
2018-04-10T00:26:23.904Z,99.90
2018-04-10T00:28:51.331Z,99.90
2018-04-10T00:31:19.500Z,99.90
2018-04-10T00:33:47.015Z,99.90
2018-04-10T00:36:15.333Z,99.90
2018-04-10T00:38:42.772Z,99.90
2018-04-10T00:41:10.194Z,99.90
2018-04-10T00:43:37.630Z,99.90
2018-04-10T00:46:05.028Z,99.90
2018-04-10T00:48:33.993Z,99.90
2018-04-10T00:51:01.457Z,99.90
2018-04-10T00:53:37.540Z,99.90
2018-04-10T00:56:04.963Z,99.90
2018-04-10T00:58:33.155Z,99.90
2018-04-10T01:01:00.592Z,99.90
2018-04-10T01:03:29.516Z,99.90
2018-04-10T01:05:57.700Z,99.90
2018-04-10T01:08:25.922Z,99.90
2018-04-10T01:10:53.344Z,99.90
2018-04-10T01:13:20.784Z,99.90
2018-04-10T01:15:48.193Z,99.90
2018-04-10T01:18:16.383Z,99.90
2018-04-10T01:20:44.608Z,99.90
2018-04-10T01:23:12.065Z,99.90
2018-04-10T01:25:40.346Z,99.90
2018-04-10T01:28:07.831Z,99.90
2018-04-10T01:30:35.229Z,99.90
2018-04-10T01:33:02.655Z,99.90
2018-04-10T01:35:30.112Z,99.90
2018-04-10T01:37:57.558Z,99.90
2018-04-10T01:40:24.991Z,99.90
2018-04-10T01:42:52.439Z,99.90
2018-04-10T01:45:19.931Z,99.90
2018-04-10T01:47:47.347Z,99.90
2018-04-10T01:50:15.574Z,99.90
2018-04-10T01:52:42.984Z,99.90
2018-04-10T01:55:10.502Z,99.90
2018-04-10T01:57:37.941Z,99.90
2018-04-10T02:00:05.381Z,99.90
2018-04-10T02:02:32.942Z,99.90
2018-04-10T02:05:00.347Z,99.90
2018-04-10T02:07:27.764Z,99.90
2018-04-10T02:09:55.179Z,99.90
2018-04-10T02:12:23.395Z,99.90
2018-04-10T02:14:50.819Z,99.90
2018-04-10T02:17:18.248Z,99.90
2018-04-10T02:19:45.656Z,99.90
2018-04-10T02:22:13.853Z,99.90
2018-04-10T02:24:41.288Z,99.90
2018-04-10T02:27:08.720Z,99.90
2018-04-10T02:29:36.149Z,99.90
2018-04-10T02:32:03.568Z,99.90
2018-04-10T02:34:31.040Z,99.90
2018-04-10T02:36:58.484Z,99.90
2018-04-10T02:39:25.961Z,99.90
2018-04-10T02:41:53.394Z,99.90
2018-04-10T02:44:20.921Z,99.90
2018-04-10T02:46:48.339Z,99.90
2018-04-10T02:49:16.532Z,99.90
2018-04-10T02:51:44.724Z,99.90
2018-04-10T02:54:12.205Z,99.90
2018-04-10T02:56:39.627Z,99.90
2018-04-10T02:59:07.044Z,99.90
2018-04-10T03:01:34.488Z,99.90
2018-04-10T03:04:02.692Z,99.90
2018-04-10T03:06:30.144Z,99.90
2018-04-10T03:08:58.348Z,99.90
2018-04-10T03:11:25.771Z,99.90
2018-04-10T03:13:53.200Z,99.90
2018-04-10T03:16:20.652Z,99.90
2018-04-10T03:18:48.844Z,99.90
2018-04-10T03:21:16.281Z,99.90
2018-04-10T03:23:44.480Z,99.90
2018-04-10T03:26:12.672Z,99.90
2018-04-10T03:28:41.780Z,99.90
2018-04-10T03:31:09.216Z,99.90
2018-04-10T03:33:36.652Z,99.90
2018-04-10T03:36:04.100Z,99.90
2018-04-10T03:38:32.292Z,99.90
2018-04-10T03:40:59.725Z,99.90
2018-04-10T03:43:27.916Z,99.90
2018-04-10T03:45:56.109Z,99.90
2018-04-10T03:48:24.288Z,99.90
2018-04-10T03:50:52.492Z,99.90
2018-04-10T03:53:20.768Z,99.90
2018-04-10T03:55:48.995Z,99.90
2018-04-10T03:58:16.394Z,99.90
2018-04-10T04:00:43.820Z,99.90
2018-04-10T04:03:12.179Z,99.90
2018-04-10T04:05:40.359Z,99.90
2018-04-10T04:08:08.553Z,99.90
2018-04-10T04:10:36.747Z,99.90
2018-04-10T04:13:04.167Z,99.90
2018-04-10T04:15:31.710Z,99.90
2018-04-10T04:17:59.146Z,99.90
2018-04-10T04:20:39.040Z,99.90
2018-04-10T04:23:06.486Z,99.90
2018-04-10T04:25:33.918Z,99.90
2018-04-10T04:28:01.360Z,99.90
2018-04-10T04:30:28.764Z,99.90
2018-04-10T04:32:56.188Z,99.90
2018-04-10T04:35:23.738Z,99.90
2018-04-10T04:37:51.956Z,99.90
2018-04-10T04:40:19.382Z,99.90
2018-04-10T04:42:46.823Z,99.90
2018-04-10T04:45:14.252Z,99.90
2018-04-10T04:47:41.684Z,99.90
2018-04-10T04:50:09.104Z,99.90
2018-04-10T04:52:36.561Z,99.90
2018-04-10T04:55:03.983Z,99.90
2018-04-10T04:57:31.423Z,99.90
2018-04-10T04:59:58.843Z,99.90
2018-04-10T05:02:26.298Z,99.90
2018-04-10T05:04:53.716Z,99.90
2018-04-10T05:07:21.163Z,99.90
2018-04-10T05:09:48.577Z,99.90
2018-04-10T05:12:16.014Z,99.90
2018-04-10T05:14:44.462Z,99.90
2018-04-10T05:17:13.572Z,99.90
2018-04-10T05:19:41.051Z,99.90
2018-04-10T05:22:08.482Z,99.90
2018-04-10T05:24:35.912Z,99.90
2018-04-10T05:27:03.348Z,99.90
2018-04-10T05:29:31.519Z,99.90
2018-04-10T05:31:59.753Z,99.90
2018-04-10T05:34:27.228Z,99.90
2018-04-10T05:36:54.649Z,99.90
2018-04-10T05:39:22.841Z,99.90
2018-04-10T05:41:51.047Z,99.90
2018-04-10T05:44:18.533Z,99.90
2018-04-10T05:46:45.989Z,99.90
2018-04-10T05:49:14.219Z,99.90
2018-04-10T05:51:41.628Z,99.90
2018-04-10T05:54:09.069Z,99.90
2018-04-10T05:56:36.499Z,99.90
2018-04-10T05:59:03.924Z,99.90
2018-04-10T06:01:32.109Z,99.90
2018-04-10T06:04:00.329Z,99.90
2018-04-10T06:06:27.856Z,99.90
2018-04-10T06:08:55.289Z,99.90
2018-04-10T06:11:22.756Z,99.90
2018-04-10T06:13:50.208Z,99.90
2018-04-10T06:16:17.705Z,99.90
2018-04-10T06:18:45.141Z,99.90
2018-04-10T06:21:12.610Z,99.90
2018-04-10T06:23:40.078Z,99.90
2018-04-10T06:26:07.548Z,99.90
2018-04-10T06:28:34.988Z,99.90
2018-04-10T06:31:03.170Z,99.90
2018-04-10T06:33:30.612Z,99.90
2018-04-10T06:35:58.036Z,99.90
2018-04-10T06:38:25.457Z,99.90
2018-04-10T06:40:52.975Z,99.90
2018-04-10T06:43:20.372Z,99.90
2018-04-10T06:45:47.836Z,99.90
2018-04-10T06:48:16.272Z,99.90
2018-04-10T06:50:45.506Z,99.90
2018-04-10T06:53:13.756Z,99.90
2018-04-10T06:55:41.272Z,99.90
2018-04-10T06:58:08.700Z,99.90
2018-04-10T07:00:36.941Z,99.90
2018-04-10T07:03:04.375Z,99.90
2018-04-10T07:05:31.885Z,99.90
2018-04-10T07:07:59.360Z,99.90
2018-04-10T07:10:26.755Z,99.90
2018-04-10T07:12:54.225Z,99.90
2018-04-10T07:15:21.772Z,99.90
2018-04-10T07:17:49.197Z,99.90
2018-04-10T07:20:16.603Z,99.90
2018-04-10T07:22:44.024Z,99.90
2018-04-10T07:25:11.447Z,99.90
2018-04-10T07:27:39.660Z,99.90
2018-04-10T07:30:07.868Z,99.90
2018-04-10T07:32:36.062Z,99.90
2018-04-10T07:35:03.551Z,99.90
2018-04-10T07:37:30.967Z,99.90
2018-04-10T07:39:59.296Z,99.90
2018-04-10T07:42:26.768Z,99.90
2018-04-10T07:44:54.216Z,99.90
2018-04-10T07:47:22.420Z,99.90
2018-04-10T07:49:49.850Z,99.90
2018-04-10T07:52:17.268Z,99.90
2018-04-10T07:54:44.716Z,99.90
2018-04-10T07:57:12.147Z,99.90
2018-04-10T07:59:39.609Z,99.90
2018-04-10T08:02:07.042Z,99.90
2018-04-10T08:04:34.480Z,99.90
2018-04-10T08:07:01.941Z,99.90
2018-04-10T08:09:30.168Z,99.90
2018-04-10T08:11:57.592Z,99.90
2018-04-10T08:14:25.833Z,99.90
2018-04-10T08:16:53.291Z,99.90
2018-04-10T08:19:20.753Z,99.90
2018-04-10T08:21:48.181Z,99.90
2018-04-10T08:24:15.612Z,99.90
2018-04-10T08:26:43.072Z,99.90
2018-04-10T08:29:10.505Z,99.90
2018-04-10T08:31:38.606Z,99.90
2018-04-10T08:34:06.065Z,99.90
2018-04-10T08:36:33.508Z,99.90
2018-04-10T08:39:01.699Z,99.90
2018-04-10T08:41:29.949Z,99.90
2018-04-10T08:43:57.366Z,99.90
2018-04-10T08:46:25.599Z,99.90
2018-04-10T08:48:53.042Z,99.90
2018-04-10T08:51:20.453Z,99.90
2018-04-10T08:53:48.063Z,99.90
2018-04-10T08:56:16.370Z,99.90
2018-04-10T08:58:44.580Z,99.90
2018-04-10T09:01:12.024Z,99.90
2018-04-10T09:03:39.518Z,99.90
2018-04-10T09:06:06.943Z,99.90
2018-04-10T09:08:35.152Z,99.90
2018-04-10T09:11:02.595Z,99.90
2018-04-10T09:13:30.795Z,99.90
2018-04-10T09:15:58.212Z,99.90
2018-04-10T09:18:25.644Z,99.90
2018-04-10T09:20:53.079Z,99.90
2018-04-10T09:23:20.488Z,99.90
2018-04-10T09:25:48.339Z,99.90
2018-04-10T09:28:19.117Z,99.90
2018-04-10T09:30:46.541Z,99.90
2018-04-10T09:33:13.964Z,99.90
2018-04-10T09:35:41.384Z,99.90
2018-04-10T09:38:09.608Z,99.90
2018-04-10T09:40:37.072Z,99.90
2018-04-10T09:43:04.489Z,99.90
2018-04-10T09:45:32.709Z,99.90
2018-04-10T09:48:00.147Z,99.90
2018-04-10T09:50:27.756Z,99.90
2018-04-10T09:52:55.327Z,99.90
2018-04-10T09:55:23.495Z,99.90
2018-04-10T09:57:51.714Z,99.90
2018-04-10T10:00:24.935Z,99.90
2018-04-10T10:02:52.341Z,99.90
2018-04-10T10:05:20.666Z,99.90
2018-04-10T10:07:49.808Z,99.90
2018-04-10T10:10:17.245Z,99.90
2018-04-10T10:12:44.702Z,99.90
2018-04-10T10:15:12.904Z,99.90
2018-04-10T10:17:40.338Z,99.90
2018-04-10T10:20:08.554Z,99.90
2018-04-10T10:22:36.011Z,99.90
2018-04-10T10:25:04.319Z,99.90
2018-04-10T10:27:31.892Z,99.90
2018-04-10T10:29:59.319Z,99.90
2018-04-10T10:32:27.561Z,99.90
2018-04-10T10:34:55.110Z,99.90
2018-04-10T10:37:22.621Z,99.90
2018-04-10T10:39:50.057Z,99.90
2018-04-10T10:42:17.618Z,99.90
2018-04-10T10:44:45.048Z,99.90
2018-04-10T10:47:13.260Z,99.90
2018-04-10T10:49:40.736Z,99.90
2018-04-10T10:52:08.181Z,99.90
2018-04-10T10:54:36.370Z,99.90
2018-04-10T10:57:04.624Z,99.90
2018-04-10T10:59:32.049Z,99.90
2018-04-10T11:01:59.473Z,99.90
2018-04-10T11:04:26.955Z,99.90
2018-04-10T11:06:55.409Z,99.90
2018-04-10T11:09:22.861Z,99.90
2018-04-10T11:14:26.644Z,99.90
2018-04-10T11:16:54.076Z,99.90
2018-04-10T11:19:21.509Z,99.90
2018-04-10T11:21:50.643Z,99.90
2018-04-10T11:24:18.071Z,99.90
2018-04-10T11:26:46.285Z,99.90
2018-04-10T11:29:13.737Z,99.90
2018-04-10T11:31:42.092Z,99.90
2018-04-10T11:34:09.499Z,99.90
2018-04-10T11:36:37.702Z,99.90
2018-04-10T11:39:05.846Z,99.90
2018-04-10T11:41:33.320Z,99.90
2018-04-10T11:44:00.746Z,99.90
2018-04-10T11:46:28.164Z,99.90
2018-04-10T11:48:56.362Z,99.90
2018-04-10T11:51:24.569Z,99.90
2018-04-10T11:53:52.025Z,99.90
2018-04-10T11:56:21.138Z,99.90
2018-04-10T11:58:49.320Z,99.90
2018-04-10T12:01:16.935Z,99.90
2018-04-10T12:03:44.386Z,99.90
2018-04-10T12:06:11.812Z,99.90
2018-04-10T12:08:40.024Z,99.90
2018-04-10T12:11:08.219Z,99.90
2018-04-10T12:13:36.392Z,99.90
2018-04-10T12:16:04.029Z,99.90
2018-04-10T12:18:31.508Z,99.90
2018-04-10T12:20:58.933Z,99.90
2018-04-10T12:23:26.373Z,99.90
2018-04-10T12:25:53.848Z,99.90
2018-04-10T12:28:22.752Z,99.90
2018-04-10T12:30:52.678Z,99.90
2018-04-10T12:33:20.112Z,99.90
2018-04-10T12:35:48.356Z,99.90
2018-04-10T12:38:15.764Z,99.90
2018-04-10T12:40:43.961Z,99.90
2018-04-10T12:43:12.211Z,99.90
2018-04-10T12:45:39.756Z,99.90
2018-04-10T12:48:07.474Z,98.40
2018-04-10T12:50:34.888Z,98.30
2018-04-10T12:53:02.331Z,96.90
2018-04-10T12:55:31.185Z,96.30
2018-04-10T12:57:58.821Z,96.30
2018-04-10T13:00:26.979Z,92.50
2018-04-10T13:02:55.201Z,88.60
2018-04-10T13:05:23.425Z,89.70
2018-04-10T13:07:50.854Z,89.50
2018-04-10T13:10:18.263Z,90.70
2018-04-10T13:12:45.690Z,90.30
2018-04-10T13:15:13.120Z,91.70
2018-04-10T13:17:40.596Z,90.70
2018-04-10T13:20:07.976Z,92.60
2018-04-10T13:22:36.174Z,93.60
2018-04-10T13:25:03.623Z,93.60
2018-04-10T13:27:31.819Z,93.90
2018-04-10T13:29:59.745Z,93.60
2018-04-10T13:32:27.167Z,93.10
2018-04-10T13:34:54.584Z,91.50
2018-04-10T13:37:22.013Z,90.60
2018-04-10T13:39:49.431Z,90.80
2018-04-10T13:42:16.852Z,90.40
2018-04-10T13:44:44.290Z,89.30
2018-04-10T13:47:12.493Z,86.30
2018-04-10T13:49:40.707Z,87.20
2018-04-10T13:52:08.136Z,87.20
2018-04-10T13:54:36.344Z,84.90
2018-04-10T13:57:04.546Z,84.50
2018-04-10T13:59:32.019Z,84.50
2018-04-10T14:01:59.419Z,85.70
2018-04-10T14:04:26.867Z,86.00
2018-04-10T14:06:54.290Z,87.30
2018-04-10T14:09:22.493Z,87.30
2018-04-10T14:11:50.686Z,89.90
2018-04-10T14:14:18.271Z,89.90
2018-04-10T14:16:45.696Z,88.80
2018-04-10T14:19:13.208Z,89.20
2018-04-10T14:21:41.430Z,90.30
2018-04-10T14:24:08.847Z,90.30
2018-04-10T14:26:36.275Z,90.60
2018-04-10T14:29:03.705Z,89.30
2018-04-10T14:31:31.161Z,88.50
2018-04-10T14:33:59.356Z,88.00
2018-04-10T14:36:27.017Z,87.90
2018-04-10T14:38:54.455Z,88.40
2018-04-10T14:41:21.876Z,87.90
2018-04-10T14:43:49.319Z,88.30
2018-04-10T14:46:16.744Z,88.70
2018-04-10T14:48:44.194Z,86.80
2018-04-10T14:51:11.672Z,86.50
2018-04-10T14:53:39.100Z,86.30
2018-04-10T14:56:06.848Z,86.70
2018-04-10T14:58:34.369Z,87.20
2018-04-10T15:01:01.804Z,88.10
2018-04-10T15:03:30.009Z,86.40
2018-04-10T15:05:57.492Z,86.40
2018-04-10T15:08:24.919Z,83.20
2018-04-10T15:10:53.166Z,82.50
2018-04-10T15:13:20.605Z,82.50
2018-04-10T15:15:48.016Z,81.80
2018-04-10T15:18:15.463Z,82.10
2018-04-10T15:20:42.933Z,83.30
2018-04-10T15:23:10.333Z,83.90
2018-04-10T15:25:37.948Z,83.90
2018-04-10T15:28:06.138Z,84.70
2018-04-10T15:30:33.579Z,84.70
2018-04-10T15:33:01.800Z,83.60
2018-04-10T15:35:29.267Z,83.60
2018-04-10T15:37:56.708Z,83.20
2018-04-10T15:40:25.830Z,81.60
2018-04-10T15:42:54.950Z,81.00
2018-04-10T15:45:22.510Z,80.80
2018-04-10T15:47:49.912Z,80.60
2018-04-10T15:50:17.376Z,78.70
2018-04-10T15:52:44.801Z,78.40
2018-04-10T15:55:12.988Z,78.90
2018-04-10T15:57:40.452Z,78.80
2018-04-10T16:00:08.652Z,79.20
2018-04-10T16:02:36.086Z,79.20
2018-04-10T16:05:03.545Z,79.10
2018-04-10T16:07:31.760Z,79.50
2018-04-10T16:09:59.942Z,79.40
2018-04-10T16:12:28.170Z,77.90
2018-04-10T16:14:55.622Z,77.90
2018-04-10T16:17:23.783Z,78.20
2018-04-10T16:19:51.277Z,78.10
2018-04-10T16:22:18.706Z,77.20
2018-04-10T16:24:46.154Z,76.10
2018-04-10T16:27:13.589Z,76.10
2018-04-10T16:29:41.000Z,76.20
2018-04-10T16:32:08.441Z,76.90
2018-04-10T16:34:35.867Z,78.40
2018-04-10T16:37:03.324Z,78.40
2018-04-10T16:39:30.803Z,78.70
2018-04-10T16:41:59.006Z,78.80
2018-04-10T16:44:26.435Z,78.80
2018-04-10T16:46:54.010Z,78.80
2018-04-10T16:49:21.432Z,79.70
2018-04-10T16:51:48.847Z,78.60
2018-04-10T16:54:17.068Z,78.20
2018-04-10T16:56:44.558Z,78.10
2018-04-10T16:59:11.988Z,78.20
2018-04-10T17:01:40.160Z,77.90
2018-04-10T17:04:08.368Z,78.90
2018-04-10T17:06:36.612Z,79.60
2018-04-10T17:09:04.083Z,79.50
2018-04-10T17:11:31.532Z,79.70
2018-04-10T17:13:58.976Z,80.70
2018-04-10T17:16:26.843Z,86.10
2018-04-10T17:18:54.293Z,92.90
2018-04-10T17:21:22.468Z,99.90
2018-04-10T17:23:49.904Z,99.90
2018-04-10T17:26:17.305Z,99.90
2018-04-10T17:28:45.527Z,99.90
2018-04-10T17:31:12.932Z,99.90
2018-04-10T17:33:40.399Z,99.90
2018-04-10T17:36:07.821Z,99.90
2018-04-10T17:38:36.022Z,99.90
2018-04-10T17:41:03.462Z,99.90
2018-04-10T17:43:31.652Z,99.90
2018-04-10T17:45:59.882Z,99.90
2018-04-10T17:48:27.331Z,99.90
2018-04-10T17:50:54.735Z,99.90
2018-04-10T17:53:22.185Z,99.90
2018-04-10T17:55:49.608Z,99.90
2018-04-10T17:58:17.828Z,99.90
2018-04-10T18:00:45.253Z,99.90
2018-04-10T18:03:13.434Z,99.90
2018-04-10T18:05:41.016Z,99.90
2018-04-10T18:08:09.207Z,99.90
2018-04-10T18:10:37.411Z,99.90
2018-04-10T18:13:04.824Z,99.90
2018-04-10T18:15:32.262Z,99.90
2018-04-10T18:17:59.744Z,99.90
2018-04-10T18:20:28.304Z,99.90
2018-04-10T18:22:55.773Z,99.90
2018-04-10T18:27:50.480Z,99.90
2018-04-10T18:30:17.986Z,99.90
2018-04-10T18:32:45.420Z,99.90
2018-04-10T18:35:12.833Z,99.90
2018-04-10T18:37:40.269Z,99.90
2018-04-10T18:40:08.460Z,99.90
2018-04-10T18:42:36.666Z,99.90
2018-04-10T18:45:04.110Z,99.90
2018-04-10T18:47:32.312Z,99.90
2018-04-10T18:50:01.037Z,99.90
2018-04-10T18:52:28.473Z,99.90
2018-04-10T18:54:56.665Z,99.90
2018-04-10T18:57:24.084Z,99.90
2018-04-10T18:59:51.503Z,99.90
2018-04-10T19:02:18.934Z,99.90
2018-04-10T19:04:46.351Z,99.90
2018-04-10T19:07:13.772Z,99.90
2018-04-10T19:09:41.214Z,99.90
2018-04-10T19:12:08.620Z,99.90
2018-04-10T19:14:36.819Z,99.90
2018-04-10T19:17:05.031Z,99.90
2018-04-10T19:19:32.577Z,99.90
2018-04-10T19:22:00.040Z,99.90
2018-04-10T19:24:29.173Z,99.90
2018-04-10T19:26:56.624Z,99.90
2018-04-10T19:29:24.072Z,99.90
2018-04-10T19:31:51.580Z,99.90
2018-04-10T19:34:19.020Z,99.90
2018-04-10T19:36:47.224Z,99.90
2018-04-10T19:39:14.640Z,99.90
2018-04-10T19:41:42.074Z,99.90
2018-04-10T19:44:09.537Z,99.90
2018-04-10T19:46:37.749Z,99.90
2018-04-10T19:49:05.188Z,99.90
2018-04-10T19:51:33.364Z,99.90
2018-04-10T19:54:00.780Z,99.90
2018-04-10T19:56:29.148Z,99.90
2018-04-10T19:58:56.619Z,99.90
2018-04-10T20:01:24.060Z,99.90
2018-04-10T20:03:52.264Z,99.90
2018-04-10T20:06:19.692Z,99.90
2018-04-10T20:08:47.125Z,99.90
2018-04-10T20:11:14.634Z,99.90
2018-04-10T20:13:42.081Z,99.90
2018-04-10T20:16:09.520Z,99.90
2018-04-10T20:18:36.955Z,99.90
2018-04-10T20:21:05.173Z,99.90
2018-04-10T20:23:32.605Z,99.90
2018-04-10T20:26:01.715Z,99.90
2018-04-10T20:28:30.339Z,99.90
2018-04-10T20:30:59.440Z,99.90
2018-04-10T20:33:26.864Z,99.90
2018-04-10T20:35:54.304Z,99.90
2018-04-10T20:38:21.761Z,99.90
2018-04-10T20:40:49.218Z,99.90
2018-04-10T20:43:16.690Z,99.90
2018-04-10T20:45:44.142Z,99.90
2018-04-10T20:48:12.360Z,99.90
2018-04-10T20:50:39.771Z,99.90
2018-04-10T20:53:07.212Z,99.90
2018-04-10T20:55:34.652Z,99.90
2018-04-10T20:58:02.884Z,99.90
2018-04-10T21:00:30.313Z,99.90
2018-04-10T21:02:57.733Z,99.90
2018-04-10T21:05:25.200Z,99.90
2018-04-10T21:07:52.576Z,99.90
2018-04-10T21:10:20.772Z,99.90
2018-04-10T21:12:48.983Z,99.90
2018-04-10T21:15:16.415Z,99.90
2018-04-10T21:17:44.620Z,99.90
2018-04-10T21:20:12.813Z,99.90
2018-04-10T21:22:40.995Z,99.90
2018-04-10T21:25:08.442Z,99.90
2018-04-10T21:27:35.890Z,99.90
2018-04-10T21:30:03.366Z,99.90
2018-04-10T21:32:30.795Z,99.90
2018-04-10T21:34:58.209Z,99.90
2018-04-10T21:37:25.637Z,99.90
2018-04-10T21:39:53.064Z,99.90
2018-04-10T21:42:21.266Z,99.90
2018-04-10T21:44:48.679Z,99.90
2018-04-10T21:47:16.103Z,99.90
2018-04-10T21:49:43.541Z,99.90
2018-04-10T21:52:10.970Z,99.90
2018-04-10T21:54:38.385Z,99.90
2018-04-10T21:57:06.567Z,99.90
2018-04-10T21:59:33.999Z,99.90
2018-04-10T22:02:01.540Z,99.90
2018-04-10T22:04:28.965Z,99.90
2018-04-10T22:06:56.392Z,99.90
2018-04-10T22:09:23.826Z,99.90
2018-04-10T22:11:51.300Z,99.90
2018-04-10T22:14:19.502Z,99.90
2018-04-10T22:16:46.967Z,99.90
2018-04-10T22:19:14.469Z,99.90
2018-04-10T22:21:41.907Z,99.90
2018-04-10T22:24:09.334Z,99.90
2018-04-10T22:26:36.832Z,99.90
2018-04-10T22:29:04.282Z,99.90
2018-04-10T22:31:31.700Z,99.90
2018-04-10T22:33:59.104Z,99.90
2018-04-10T22:36:27.289Z,99.90
2018-04-10T22:38:55.457Z,99.90
2018-04-10T22:41:23.662Z,99.90
2018-04-10T22:43:51.856Z,99.90
2018-04-10T22:46:19.317Z,99.90
2018-04-10T22:48:46.740Z,99.90
2018-04-10T22:51:14.156Z,99.90
2018-04-10T22:53:41.611Z,99.90
2018-04-10T22:56:09.810Z,99.90
2018-04-10T22:58:38.032Z,99.90
2018-04-10T23:01:05.479Z,99.90
2018-04-10T23:03:32.978Z,99.90
2018-04-10T23:06:02.043Z,99.90
2018-04-10T23:08:29.472Z,99.90
2018-04-10T23:10:56.904Z,99.90
2018-04-10T23:13:24.358Z,99.90
2018-04-10T23:15:52.549Z,99.90
2018-04-10T23:18:20.737Z,99.90
2018-04-10T23:20:48.920Z,99.90
2018-04-10T23:23:17.113Z,99.90
2018-04-10T23:25:45.325Z,99.90
2018-04-10T23:28:12.769Z,99.90
2018-04-10T23:30:40.974Z,99.90
2018-04-10T23:33:08.411Z,99.90
2018-04-10T23:35:35.840Z,99.90
2018-04-10T23:38:03.276Z,99.90
2018-04-10T23:40:30.721Z,99.90
2018-04-10T23:42:58.912Z,99.90
2018-04-10T23:45:27.108Z,99.90
2018-04-10T23:47:55.309Z,99.90
2018-04-10T23:50:22.715Z,99.90
2018-04-10T23:52:50.129Z,99.90
2018-04-10T23:55:18.324Z,99.90
2018-04-10T23:57:45.800Z,99.90
